createdAt,value
2022-09-14T00:02:01.743Z,0.57
2022-09-14T00:07:08.682Z,1.39
2022-09-14T00:12:15.791Z,0.39
2022-09-14T00:17:22.856Z,1.55
2022-09-14T00:22:29.930Z,0.41
2022-09-14T00:27:36.977Z,0.37
2022-09-14T00:32:43.975Z,0.39
2022-09-14T00:37:50.985Z,0.63
2022-09-14T00:42:57.894Z,0.82
2022-09-14T00:48:05.038Z,1.56
2022-09-14T00:53:11.995Z,1.14
2022-09-14T00:58:19.010Z,0.48
2022-09-14T01:03:25.927Z,0.89
2022-09-14T01:08:33.000Z,0.69
2022-09-14T01:13:42.189Z,0.59
2022-09-14T01:18:49.217Z,0.92
2022-09-14T01:23:55.962Z,0.81
2022-09-14T01:29:03.360Z,0.84
2022-09-14T01:34:10.294Z,3.71
2022-09-14T01:39:17.360Z,0.96
2022-09-14T01:44:24.371Z,0.45
2022-09-14T01:49:31.370Z,1.20
2022-09-14T01:54:38.426Z,1.80
2022-09-14T01:59:45.625Z,0.54
2022-09-14T02:04:52.696Z,0.56
2022-09-14T02:09:59.720Z,2.96
2022-09-14T02:15:06.716Z,0.48
2022-09-14T02:20:13.743Z,0.58
2022-09-14T02:25:20.704Z,0.74
2022-09-14T02:30:27.781Z,0.45
2022-09-14T02:35:34.767Z,0.63
2022-09-14T02:40:41.913Z,1.04
2022-09-14T02:45:48.932Z,1.23
2022-09-14T02:50:55.986Z,1.11
2022-09-14T02:56:02.957Z,0.63
2022-09-14T03:01:10.073Z,0.46
2022-09-14T03:06:16.903Z,0.90
2022-09-14T03:11:24.195Z,0.87
2022-09-14T03:16:31.197Z,1.41
2022-09-14T03:21:38.289Z,0.53
2022-09-14T03:26:45.243Z,1.07
2022-09-14T03:31:52.295Z,1.03
2022-09-14T03:36:59.213Z,0.57
2022-09-14T03:42:06.492Z,1.03
2022-09-14T03:47:13.671Z,0.60
2022-09-14T03:52:20.757Z,0.59
2022-09-14T03:57:27.631Z,1.09
2022-09-14T04:02:34.741Z,1.09
2022-09-14T04:07:41.593Z,2.15
2022-09-14T04:12:48.575Z,3.26
2022-09-14T04:17:55.535Z,3.94
2022-09-14T04:23:02.592Z,1.84
2022-09-14T04:28:20.286Z,2.36
2022-09-14T04:33:18.966Z,0.97
2022-09-14T04:38:26.004Z,0.99
2022-09-14T04:43:33.051Z,2.03
2022-09-14T04:48:41.222Z,0.89
2022-09-14T04:53:48.322Z,0.81
2022-09-14T04:58:55.333Z,0.62
2022-09-14T05:04:02.302Z,1.51
2022-09-14T05:09:09.452Z,1.01
2022-09-14T05:14:16.486Z,0.96
2022-09-14T05:19:23.605Z,1.15
2022-09-14T05:24:30.592Z,1.30
2022-09-14T05:29:37.588Z,0.88
2022-09-14T05:34:44.501Z,1.34
2022-09-14T05:39:51.527Z,0.91
2022-09-14T05:44:58.616Z,0.80
2022-09-14T05:50:06.323Z,2.57
2022-09-14T05:55:13.410Z,2.79
2022-09-14T06:00:20.459Z,2.09
2022-09-14T06:05:27.683Z,2.08
2022-09-14T06:10:34.571Z,2.90
2022-09-14T06:15:41.682Z,1.39
2022-09-14T06:20:48.753Z,1.10
2022-09-14T06:25:55.716Z,2.06
2022-09-14T06:31:02.680Z,2.59
2022-09-14T06:36:09.808Z,1.21
2022-09-14T06:41:16.677Z,1.99
2022-09-14T06:46:23.821Z,2.17
2022-09-14T06:51:30.695Z,2.47
2022-09-14T06:56:37.789Z,1.41
2022-09-14T07:01:44.806Z,2.68
2022-09-14T07:06:51.911Z,2.26
2022-09-14T07:11:58.824Z,1.20
2022-09-14T07:17:05.875Z,1.48
2022-09-14T07:22:12.907Z,2.88
2022-09-14T07:27:19.990Z,3.33
2022-09-14T07:32:26.892Z,2.03
2022-09-14T07:37:33.885Z,1.91
2022-09-14T07:42:40.813Z,2.01
2022-09-14T07:47:48.927Z,2.86
2022-09-14T07:52:55.897Z,0.95
2022-09-14T07:58:02.970Z,1.63
2022-09-14T08:03:09.907Z,2.38
2022-09-14T08:08:17.139Z,2.27
2022-09-14T08:13:24.119Z,0.52
2022-09-14T08:18:31.076Z,2.76
2022-09-14T08:23:38.030Z,1.27
2022-09-14T08:28:46.319Z,1.48
2022-09-14T08:33:53.295Z,2.59
2022-09-14T08:39:00.357Z,1.98
2022-09-14T08:44:07.308Z,0.93
2022-09-14T08:49:14.239Z,1.40
2022-09-14T08:54:21.159Z,0.50
2022-09-14T08:59:28.415Z,0.45
2022-09-14T09:04:35.311Z,0.40
2022-09-14T09:09:42.333Z,0.50
2022-09-14T09:14:49.545Z,0.77
2022-09-14T09:19:56.598Z,0.55
2022-09-14T09:25:03.496Z,0.49
2022-09-14T09:30:10.707Z,1.27
2022-09-14T09:35:17.630Z,1.30
2022-09-14T09:40:24.876Z,0.44
2022-09-14T09:45:31.756Z,0.84
2022-09-14T09:50:38.979Z,1.57
2022-09-14T09:55:45.933Z,2.97
2022-09-14T10:00:53.175Z,0.56
2022-09-14T10:06:00.023Z,0.50
2022-09-14T10:11:07.538Z,0.40
2022-09-14T10:16:14.655Z,0.40
2022-09-14T10:21:21.555Z,0.54
2022-09-14T10:26:28.461Z,0.83
2022-09-14T10:31:35.604Z,0.78
2022-09-14T10:36:42.475Z,1.03
2022-09-14T10:41:49.534Z,0.74
2022-09-14T10:46:57.227Z,0.49
2022-09-14T10:52:03.050Z,0.82
2022-09-14T10:57:09.969Z,0.39
2022-09-14T11:02:17.238Z,1.31
2022-09-14T11:07:24.027Z,0.49
2022-09-14T11:12:31.304Z,0.75
2022-09-14T11:17:38.261Z,0.86
2022-09-14T11:22:45.485Z,0.40
2022-09-14T11:27:52.448Z,0.95
2022-09-14T11:32:59.574Z,0.75
2022-09-14T11:38:06.530Z,0.44
2022-09-14T11:43:13.769Z,0.98
2022-09-14T11:48:41.877Z,0.39
2022-09-14T11:53:27.461Z,0.74
2022-09-14T11:58:34.415Z,0.37
2022-09-14T12:03:41.405Z,0.88
2022-09-14T12:08:48.343Z,0.62
2022-09-14T12:13:56.351Z,0.43
2022-09-14T12:19:03.353Z,0.32
2022-09-14T12:24:10.753Z,0.95
2022-09-14T12:29:17.756Z,0.61
2022-09-14T12:34:24.741Z,0.55
2022-09-14T12:39:31.683Z,0.35
2022-09-14T12:44:38.754Z,0.87
2022-09-14T12:49:46.771Z,0.41
2022-09-14T12:54:53.910Z,0.39
2022-09-14T13:00:00.847Z,0.38
2022-09-14T13:05:07.972Z,1.09
2022-09-14T13:10:14.945Z,0.53
2022-09-14T13:15:21.992Z,0.68
2022-09-14T13:20:30.150Z,0.30
2022-09-14T13:25:37.227Z,0.63
2022-09-14T13:30:44.212Z,0.40
2022-09-14T13:35:51.355Z,0.95
2022-09-14T13:40:58.568Z,0.62
2022-09-14T13:46:05.663Z,0.40
2022-09-14T13:51:12.646Z,0.62
2022-09-14T13:56:19.759Z,0.98
2022-09-14T14:01:26.762Z,2.37
2022-09-14T14:06:33.861Z,0.32
2022-09-14T14:11:40.813Z,0.77
2022-09-14T14:16:47.927Z,1.19
2022-09-14T14:21:54.807Z,0.73
2022-09-14T14:27:01.816Z,0.48
2022-09-14T14:32:08.916Z,0.39
2022-09-14T14:37:16.060Z,0.98
2022-09-14T14:42:23.078Z,0.55
2022-09-14T14:47:30.060Z,1.28
2022-09-14T14:52:37.116Z,0.35
2022-09-14T14:57:44.186Z,1.00
2022-09-14T15:02:51.682Z,0.49
2022-09-14T15:07:58.752Z,1.01
2022-09-14T15:13:05.792Z,0.78
2022-09-14T15:18:12.825Z,1.14
2022-09-14T15:23:19.886Z,2.87
2022-09-14T15:28:26.969Z,1.06
2022-09-14T15:33:33.935Z,0.79
2022-09-14T15:38:41.133Z,1.80
2022-09-14T15:48:57.706Z,3.08
2022-09-14T15:54:04.667Z,0.62
2022-09-14T15:59:11.673Z,1.16
2022-09-14T16:04:18.762Z,0.73
2022-09-14T16:09:25.704Z,0.75
2022-09-14T16:14:32.813Z,2.16
2022-09-14T16:19:39.793Z,1.03
2022-09-14T16:24:46.800Z,1.83
2022-09-14T16:29:53.842Z,2.09
2022-09-14T16:35:02.788Z,1.29
2022-09-14T16:40:07.535Z,0.59
2022-09-14T16:45:14.500Z,2.59
2022-09-14T16:50:21.600Z,1.17
2022-09-14T16:55:28.594Z,2.20
2022-09-14T17:00:35.675Z,2.23
2022-09-14T17:05:42.722Z,1.42
2022-09-14T17:10:49.859Z,1.29
2022-09-14T17:15:56.850Z,2.76
2022-09-14T17:21:04.040Z,2.49
2022-09-14T17:26:10.995Z,2.56
2022-09-14T17:31:19.847Z,2.79
2022-09-14T17:36:26.756Z,3.11
2022-09-14T17:41:33.895Z,2.97
2022-09-14T17:46:50.765Z,2.46
2022-09-14T17:51:47.482Z,1.57
2022-09-14T17:56:54.494Z,2.19
2022-09-14T18:02:02.794Z,1.57
2022-09-14T18:07:09.809Z,2.42
2022-09-14T18:12:17.140Z,2.29
2022-09-14T18:17:24.189Z,4.00
2022-09-14T18:22:31.249Z,1.40
2022-09-14T18:27:38.150Z,1.27
2022-09-14T18:32:45.255Z,3.34
2022-09-14T18:37:52.248Z,1.84
2022-09-14T18:42:59.629Z,1.33
2022-09-14T18:48:06.642Z,3.74
2022-09-14T18:53:13.732Z,2.19
2022-09-14T18:58:20.719Z,2.08
2022-09-14T19:03:27.796Z,2.74
2022-09-14T19:08:34.731Z,6.08
2022-09-14T19:13:41.849Z,5.30
2022-09-14T19:18:48.778Z,2.44
2022-09-14T19:23:55.842Z,1.73
2022-09-14T19:29:02.846Z,2.60
2022-09-14T19:34:09.948Z,2.49
2022-09-14T19:39:16.944Z,2.80
2022-09-14T19:44:24.089Z,3.33
2022-09-14T19:49:34.004Z,2.66
2022-09-14T19:54:41.032Z,3.24
2022-09-14T19:59:47.961Z,4.11
2022-09-14T20:04:55.081Z,4.31
2022-09-14T20:10:02.006Z,3.24
2022-09-14T20:15:09.033Z,2.14
2022-09-14T20:20:16.069Z,2.53
2022-09-14T20:25:23.141Z,2.84
2022-09-14T20:30:30.093Z,3.26
2022-09-14T20:35:37.291Z,2.43
2022-09-14T20:40:44.330Z,3.02
2022-09-14T20:45:51.493Z,2.89
2022-09-14T20:50:58.435Z,2.12
2022-09-14T20:56:05.542Z,1.81
2022-09-14T21:01:12.632Z,1.89
2022-09-14T21:06:19.474Z,4.31
2022-09-14T21:11:26.395Z,4.27
2022-09-14T21:16:33.402Z,3.56
2022-09-14T21:21:40.450Z,3.97
2022-09-14T21:26:47.550Z,2.40
2022-09-14T21:31:54.549Z,2.55
2022-09-14T21:37:01.558Z,2.48
2022-09-14T21:42:08.564Z,3.07
2022-09-14T21:47:15.894Z,2.72
2022-09-14T21:52:22.845Z,4.97
2022-09-14T21:57:30.001Z,3.35
2022-09-14T22:02:37.186Z,6.10
2022-09-14T22:07:44.055Z,2.82
2022-09-14T22:12:51.036Z,4.02
2022-09-14T22:18:01.562Z,4.53
2022-09-14T22:23:04.586Z,4.29
2022-09-14T22:28:11.767Z,2.69
2022-09-14T22:33:18.759Z,3.08
2022-09-14T22:38:25.750Z,3.24
2022-09-14T22:43:32.718Z,3.84
2022-09-14T22:48:39.798Z,3.55
2022-09-14T22:53:46.752Z,3.39
2022-09-14T22:58:53.990Z,2.23
2022-09-14T23:04:01.025Z,1.92
2022-09-14T23:09:08.096Z,2.02
2022-09-14T23:14:16.150Z,2.15
2022-09-14T23:19:22.230Z,1.88
2022-09-14T23:24:29.132Z,2.59
2022-09-14T23:29:36.113Z,1.63
2022-09-14T23:34:43.282Z,2.67
2022-09-14T23:39:50.270Z,1.44
2022-09-14T23:44:57.443Z,2.89
2022-09-14T23:50:04.438Z,1.62
2022-09-14T23:55:11.376Z,1.89
